PWSweather.com
Personal Weather Stations
Station Observations
SMETHPA
Wilcat Hollow, Upper Marvin Creek, Smethport, PA 16749

Wilcat Hollow, Upper Marvin CreekSmethport, PA 16749

Lat: 41.7178, Lon: -78.5583

Elevation: 1644

Station Type: Davis Vantage Pro 2 Plus

http://www.mckeanweather.com

Latest ConditionsUpdated 6:30:01 PM EDT Monday, Oct 15, 2018
Currently Today's Max Today's Min Today's Average
Temperature 51.3°F10.7°C 59.8°F15.4°C 36.1°F2.3°C 50.4°F10.2°C
Dew Point 50.2°F10.1°C 59.5°F15.3°C 34.8°F1.6°C 50.0°F10.0°C
Winds 2.0 mph SW3.2 kmh SW 4.0 mph -6.4 kmh - - 0.9 mph 1.4 kmh
Wind Gusts 9.0 mph14.5 kmh 15.0 mph24.1 kmh - -
Humidity 96% 100% 95% 99%
Pressure 29.98 in1015.2 mb 30.17 in1021.7 mb 29.89 in1012.2 mb -
Precipitation - 0.45 in11.4 mm - -
Hour Temp Dew Point Humidity Winds Wind Gusts Pressure Precip Precip Rate Daily Precip Total
06:30 PM 51.3°F10.7°C 50.2°F10.1°C 96% 2.0 mph SW3.2 kmh SW 9.0 mph14.5 kmh 29.98 in1015.2 mb 0.02 in0.5 mm 0.00 in0.0 mm 0.45 in11.4 mm
06:20 PM 51.5°F10.8°C 50.4°F10.2°C 96% 2.0 mph WSW3.2 kmh WSW 13.0 mph20.9 kmh 29.98 in1015.2 mb 0.03 in0.8 mm 0.00 in0.0 mm 0.45 in11.4 mm
06:10 PM 51.8°F11.0°C 50.7°F10.4°C 96% 2.0 mph WSW3.2 kmh WSW 8.0 mph12.9 kmh 29.97 in1014.9 mb 0.03 in0.8 mm 0.00 in0.0 mm 0.45 in11.4 mm
06:00 PM 52.1°F11.2°C 51.0°F10.6°C 96% 1.0 mph WSW1.6 kmh WSW 7.0 mph11.3 kmh 29.97 in1014.9 mb 0.03 in0.8 mm 0.00 in0.0 mm 0.45 in11.4 mm
05:50 PM 52.4°F11.3°C 51.3°F10.7°C 96% 1.0 mph WSW1.6 kmh WSW 5.0 mph8.0 kmh 29.96 in1014.6 mb 0.03 in0.8 mm 0.00 in0.0 mm 0.45 in11.4 mm
05:40 PM 52.6°F11.4°C 51.5°F10.8°C 96% 1.0 mph WSW1.6 kmh WSW 6.0 mph9.7 kmh 29.96 in1014.6 mb 0.03 in0.8 mm 0.00 in0.0 mm 0.44 in11.2 mm
05:30 PM 52.8°F11.6°C 51.7°F10.9°C 96% 2.0 mph WSW3.2 kmh WSW 7.0 mph11.3 kmh 29.96 in1014.6 mb 0.03 in0.8 mm 0.06 in1.5 mm 0.43 in10.9 mm
05:20 PM 53.0°F11.7°C 51.9°F11.1°C 96% 1.0 mph WSW1.6 kmh WSW 9.0 mph14.5 kmh 29.95 in1014.2 mb 0.02 in0.5 mm 0.00 in0.0 mm 0.42 in10.7 mm
05:10 PM 53.2°F11.8°C 52.1°F11.2°C 96% 2.0 mph WSW3.2 kmh WSW 11.0 mph17.7 kmh 29.95 in1014.2 mb 0.02 in0.5 mm 0.00 in0.0 mm 0.42 in10.7 mm
05:00 PM 53.5°F11.9°C 52.4°F11.3°C 96% 2.0 mph SW3.2 kmh SW 8.0 mph12.9 kmh 29.94 in1013.9 mb 0.03 in0.8 mm 0.00 in0.0 mm 0.42 in10.7 mm
04:50 PM 53.8°F12.1°C 52.7°F11.5°C 96% 1.0 mph WSW1.6 kmh WSW 4.0 mph6.4 kmh 29.95 in1014.2 mb 0.05 in1.3 mm 0.06 in1.5 mm 0.42 in10.7 mm
04:40 PM 54.0°F12.2°C 52.6°F11.4°C 95% 2.0 mph SW3.2 kmh SW 7.0 mph11.3 kmh 29.95 in1014.2 mb 0.04 in1.0 mm 0.00 in0.0 mm 0.41 in10.4 mm
04:30 PM 54.4°F12.4°C 53.0°F11.7°C 95% 2.0 mph SW3.2 kmh SW 10.0 mph16.1 kmh 29.95 in1014.2 mb 0.04 in1.0 mm 0.00 in0.0 mm 0.40 in10.2 mm
04:20 PM 54.8°F12.7°C 53.4°F11.9°C 95% 2.0 mph WSW3.2 kmh WSW 6.0 mph9.7 kmh 29.94 in1013.9 mb 0.05 in1.3 mm 0.00 in0.0 mm 0.40 in10.2 mm
04:10 PM 55.1°F12.8°C 54.0°F12.2°C 96% 3.0 mph SW4.8 kmh SW 12.0 mph19.3 kmh 29.93 in1013.5 mb 0.06 in1.5 mm 0.06 in1.5 mm 0.40 in10.2 mm
04:00 PM 55.8°F13.2°C 54.7°F12.6°C 96% 3.0 mph SW4.8 kmh SW 12.0 mph19.3 kmh 29.93 in1013.5 mb 0.05 in1.3 mm 0.00 in0.0 mm 0.38 in9.7 mm
03:50 PM 56.6°F13.7°C 55.8°F13.2°C 97% 1.0 mph WSW1.6 kmh WSW 7.0 mph11.3 kmh 29.93 in1013.5 mb 0.06 in1.5 mm 0.00 in0.0 mm 0.37 in9.4 mm
03:40 PM 57.2°F14.0°C 56.4°F13.6°C 97% 1.0 mph SW1.6 kmh SW 4.0 mph6.4 kmh 29.92 in1013.2 mb 0.07 in1.8 mm 0.00 in0.0 mm 0.37 in9.4 mm
03:30 PM 57.5°F14.2°C 56.7°F13.7°C 97% 2.0 mph SW3.2 kmh SW 5.0 mph8.0 kmh 29.92 in1013.2 mb 0.07 in1.8 mm 0.00 in0.0 mm 0.36 in9.1 mm
03:20 PM 57.8°F14.3°C 57.8°F14.3°C 100% 2.0 mph WSW3.2 kmh WSW 8.0 mph12.9 kmh 29.92 in1013.2 mb 0.10 in2.5 mm 0.00 in0.0 mm 0.35 in8.9 mm
03:10 PM 58.1°F14.5°C 58.1°F14.5°C 100% 3.0 mph WSW4.8 kmh WSW 8.0 mph12.9 kmh 29.92 in1013.2 mb 0.10 in2.5 mm 0.00 in0.0 mm 0.34 in8.6 mm
03:00 PM 58.5°F14.7°C 58.5°F14.7°C 100% 4.0 mph WSW6.4 kmh WSW 11.0 mph17.7 kmh 29.92 in1013.2 mb 0.12 in3.0 mm 0.00 in0.0 mm 0.33 in8.4 mm
02:50 PM 59.3°F15.2°C 59.0°F15.0°C 99% 3.0 mph WSW4.8 kmh WSW 12.0 mph19.3 kmh 29.91 in1012.9 mb 0.15 in3.8 mm 0.00 in0.0 mm 0.30 in7.6 mm
02:40 PM 59.4°F15.2°C 59.1°F15.1°C 99% 2.0 mph SW3.2 kmh SW 8.0 mph12.9 kmh 29.89 in1012.2 mb 0.15 in3.8 mm 0.00 in0.0 mm 0.30 in7.6 mm
02:30 PM 59.3°F15.2°C 59.0°F15.0°C 99% 4.0 mph SW6.4 kmh SW 9.0 mph14.5 kmh 29.90 in1012.5 mb 0.15 in3.8 mm 0.18 in4.6 mm 0.29 in7.4 mm
02:20 PM 59.4°F15.2°C 59.1°F15.1°C 99% 3.0 mph WSW4.8 kmh WSW 15.0 mph24.1 kmh 29.90 in1012.5 mb 0.12 in3.0 mm 0.06 in1.5 mm 0.25 in6.4 mm
02:10 PM 59.5°F15.3°C 59.2°F15.1°C 99% 1.0 mph WSW1.6 kmh WSW 8.0 mph12.9 kmh 29.89 in1012.2 mb 0.11 in2.8 mm 0.18 in4.6 mm 0.24 in6.1 mm
02:00 PM 59.6°F15.3°C 59.3°F15.2°C 99% 2.0 mph WSW3.2 kmh WSW 3.0 mph4.8 kmh 29.90 in1012.5 mb 0.08 in2.0 mm 0.06 in1.5 mm 0.21 in5.3 mm
01:50 PM 59.6°F15.3°C 59.3°F15.2°C 99% 1.0 mph SW1.6 kmh SW 10.0 mph16.1 kmh 29.89 in1012.2 mb 0.03 in0.8 mm 0.00 in0.0 mm 0.15 in3.8 mm
01:40 PM 59.8°F15.4°C 59.5°F15.3°C 99% 2.0 mph SW3.2 kmh SW 8.0 mph12.9 kmh 29.89 in1012.2 mb 0.03 in0.8 mm 0.06 in1.5 mm 0.15 in3.8 mm
01:30 PM 59.3°F15.2°C 59.0°F15.0°C 99% 3.0 mph SW4.8 kmh SW 10.0 mph16.1 kmh 29.91 in1012.9 mb 0.02 in0.5 mm 0.06 in1.5 mm 0.14 in3.6 mm
01:20 PM 59.2°F15.1°C 58.9°F14.9°C 99% 2.0 mph SW3.2 kmh SW 10.0 mph16.1 kmh 29.91 in1012.9 mb 0.01 in0.3 mm 0.00 in0.0 mm 0.13 in3.3 mm
01:10 PM 59.0°F15.0°C 58.7°F14.8°C 99% 1.0 mph SW1.6 kmh SW 7.0 mph11.3 kmh 29.92 in1013.2 mb 0.01 in0.3 mm 0.00 in0.0 mm 0.13 in3.3 mm
01:00 PM 58.8°F14.9°C 58.5°F14.7°C 99% 2.0 mph SW3.2 kmh SW 10.0 mph16.1 kmh 29.92 in1013.2 mb 0.01 in0.3 mm 0.01 in0.3 mm 0.13 in3.3 mm
12:50 PM 58.9°F14.9°C 58.9°F14.9°C 100% 2.0 mph SW3.2 kmh SW 6.0 mph9.7 kmh 29.92 in1013.2 mb 0.00 in0.0 mm 0.00 in0.0 mm 0.12 in3.0 mm
12:40 PM 58.9°F14.9°C 58.9°F14.9°C 100% 2.0 mph SW3.2 kmh SW 7.0 mph11.3 kmh 29.93 in1013.5 mb 0.00 in0.0 mm 0.00 in0.0 mm 0.12 in3.0 mm
12:30 PM 58.9°F14.9°C 58.9°F14.9°C 100% 2.0 mph SW3.2 kmh SW 6.0 mph9.7 kmh 29.93 in1013.5 mb 0.00 in0.0 mm 0.00 in0.0 mm 0.12 in3.0 mm
12:20 PM 58.9°F14.9°C 58.9°F14.9°C 100% 2.0 mph SW3.2 kmh SW 5.0 mph8.0 kmh 29.93 in1013.5 mb 0.00 in0.0 mm 0.00 in0.0 mm 0.12 in3.0 mm
12:10 PM 58.6°F14.8°C 58.6°F14.8°C 100% 2.0 mph SW3.2 kmh SW 7.0 mph11.3 kmh 29.93 in1013.5 mb 0.01 in0.3 mm 0.00 in0.0 mm 0.12 in3.0 mm
12:00 PM 58.6°F14.8°C 58.6°F14.8°C 100% 2.0 mph SW3.2 kmh SW 8.0 mph12.9 kmh 29.94 in1013.9 mb 0.01 in0.3 mm 0.00 in0.0 mm 0.12 in3.0 mm
11:50 AM 58.3°F14.6°C 58.3°F14.6°C 100% 2.0 mph SSW3.2 kmh SSW 4.0 mph6.4 kmh 29.94 in1013.9 mb 0.01 in0.3 mm 0.00 in0.0 mm 0.12 in3.0 mm
11:40 AM 58.0°F14.4°C 58.0°F14.4°C 100% 1.0 mph SW1.6 kmh SW 4.0 mph6.4 kmh 29.94 in1013.9 mb 0.01 in0.3 mm 0.00 in0.0 mm 0.12 in3.0 mm
11:30 AM 57.5°F14.2°C 57.5°F14.2°C 100% 1.0 mph SW1.6 kmh SW 6.0 mph9.7 kmh 29.95 in1014.2 mb 0.01 in0.3 mm 0.00 in0.0 mm 0.12 in3.0 mm
11:20 AM 57.1°F13.9°C 57.1°F13.9°C 100% 1.0 mph SSW1.6 kmh SSW 6.0 mph9.7 kmh 29.95 in1014.2 mb 0.01 in0.3 mm 0.06 in1.5 mm 0.12 in3.0 mm
11:10 AM 56.8°F13.8°C 56.8°F13.8°C 100% 1.0 mph S1.6 kmh S 5.0 mph8.0 kmh 29.95 in1014.2 mb 0.00 in0.0 mm 0.00 in0.0 mm 0.11 in2.8 mm
11:00 AM 56.4°F13.6°C 56.4°F13.6°C 100% 1.0 mph S1.6 kmh S 4.0 mph6.4 kmh 29.96 in1014.6 mb 0.01 in0.3 mm 0.00 in0.0 mm 0.11 in2.8 mm
10:50 AM 56.1°F13.4°C 56.1°F13.4°C 100% 2.0 mph SSW3.2 kmh SSW 5.0 mph8.0 kmh 29.96 in1014.6 mb 0.01 in0.3 mm 0.00 in0.0 mm 0.11 in2.8 mm
10:40 AM 55.9°F13.3°C 55.9°F13.3°C 100% 2.0 mph SW3.2 kmh SW 7.0 mph11.3 kmh 29.97 in1014.9 mb 0.01 in0.3 mm 0.00 in0.0 mm 0.11 in2.8 mm
10:30 AM 55.2°F12.9°C 55.2°F12.9°C 100% 1.0 mph WSW1.6 kmh WSW 4.0 mph6.4 kmh 29.96 in1014.6 mb 0.01 in0.3 mm 0.00 in0.0 mm 0.11 in2.8 mm
10:20 AM 54.1°F12.3°C 54.1°F12.3°C 100% 1.0 mph WSW1.6 kmh WSW 7.0 mph11.3 kmh 29.97 in1014.9 mb 0.01 in0.3 mm 0.00 in0.0 mm 0.11 in2.8 mm
10:10 AM 52.8°F11.6°C 52.5°F11.4°C 99% 1.0 mph WSW1.6 kmh WSW 4.0 mph6.4 kmh 29.98 in1015.2 mb 0.01 in0.3 mm 0.00 in0.0 mm 0.11 in2.8 mm
10:00 AM 51.9°F11.1°C 51.9°F11.1°C 100% Calm Calm 4.0 mph6.4 kmh 29.98 in1015.2 mb 0.01 in0.3 mm 0.00 in0.0 mm 0.10 in2.5 mm
09:50 AM 51.2°F10.7°C 50.9°F10.5°C 99% Calm Calm -- 29.98 in1015.2 mb 0.01 in0.3 mm 0.00 in0.0 mm 0.10 in2.5 mm
09:40 AM 50.8°F10.4°C 50.5°F10.3°C 99% Calm Calm -- 29.98 in1015.2 mb 0.02 in0.5 mm 0.00 in0.0 mm 0.10 in2.5 mm
09:30 AM 50.6°F10.3°C 50.3°F10.2°C 99% Calm Calm -- 29.99 in1015.6 mb 0.02 in0.5 mm 0.00 in0.0 mm 0.10 in2.5 mm
09:20 AM 50.3°F10.2°C 50.0°F10.0°C 99% Calm Calm -- 30.00 in1015.9 mb 0.02 in0.5 mm 0.06 in1.5 mm 0.10 in2.5 mm
09:10 AM 50.0°F10.0°C 49.7°F9.8°C 99% Calm Calm -- 30.00 in1015.9 mb 0.01 in0.3 mm 0.00 in0.0 mm 0.09 in2.3 mm
09:00 AM 49.8°F9.9°C 49.5°F9.7°C 99% Calm Calm -- 30.00 in1015.9 mb 0.02 in0.5 mm 0.00 in0.0 mm 0.09 in2.3 mm
08:50 AM 49.6°F9.8°C 49.3°F9.6°C 99% Calm Calm -- 30.00 in1015.9 mb 0.02 in0.5 mm 0.06 in1.5 mm 0.09 in2.3 mm
08:40 AM 49.4°F9.7°C 49.1°F9.5°C 99% Calm Calm 1.0 mph1.6 kmh 30.00 in1015.9 mb 0.01 in0.3 mm 0.00 in0.0 mm 0.08 in2.0 mm
08:30 AM 49.3°F9.6°C 49.0°F9.4°C 99% Calm Calm 1.0 mph1.6 kmh 30.00 in1015.9 mb 0.01 in0.3 mm 0.00 in0.0 mm 0.08 in2.0 mm
08:20 AM 49.1°F9.5°C 48.8°F9.3°C 99% Calm Calm 2.0 mph3.2 kmh 30.01 in1016.3 mb 0.01 in0.3 mm 0.00 in0.0 mm 0.08 in2.0 mm
08:10 AM 48.8°F9.3°C 48.5°F9.2°C 99% Calm Calm 1.0 mph1.6 kmh 30.01 in1016.3 mb 0.02 in0.5 mm 0.06 in1.5 mm 0.08 in2.0 mm
08:00 AM 48.7°F9.3°C 48.4°F9.1°C 99% Calm Calm 1.0 mph1.6 kmh 30.01 in1016.3 mb 0.01 in0.3 mm 0.00 in0.0 mm 0.07 in1.8 mm
07:50 AM 48.5°F9.2°C 48.2°F9.0°C 99% Calm Calm -- 30.02 in1016.6 mb 0.01 in0.3 mm 0.00 in0.0 mm 0.07 in1.8 mm
07:40 AM 48.4°F9.1°C 48.1°F8.9°C 99% Calm Calm 1.0 mph1.6 kmh 30.00 in1015.9 mb 0.01 in0.3 mm 0.00 in0.0 mm 0.07 in1.8 mm
07:30 AM 48.3°F9.1°C 48.0°F8.9°C 99% Calm Calm 2.0 mph3.2 kmh 30.01 in1016.3 mb 0.01 in0.3 mm 0.00 in0.0 mm 0.07 in1.8 mm
07:20 AM 48.1°F8.9°C 47.8°F8.8°C 99% Calm Calm 1.0 mph1.6 kmh 30.00 in1015.9 mb 0.02 in0.5 mm 0.06 in1.5 mm 0.07 in1.8 mm
07:10 AM 48.0°F8.9°C 47.7°F8.7°C 99% Calm Calm -- 30.00 in1015.9 mb 0.01 in0.3 mm 0.00 in0.0 mm 0.06 in1.5 mm
07:00 AM 47.9°F8.8°C 47.6°F8.7°C 99% Calm Calm 3.0 mph4.8 kmh 30.01 in1016.3 mb 0.01 in0.3 mm 0.00 in0.0 mm 0.06 in1.5 mm
06:50 AM 47.8°F8.8°C 47.5°F8.6°C 99% Calm Calm 1.0 mph1.6 kmh 30.02 in1016.6 mb 0.01 in0.3 mm 0.00 in0.0 mm 0.06 in1.5 mm
06:40 AM 47.6°F8.7°C 47.3°F8.5°C 99% Calm Calm 3.0 mph4.8 kmh 30.02 in1016.6 mb 0.02 in0.5 mm 0.00 in0.0 mm 0.06 in1.5 mm
06:30 AM 47.4°F8.6°C 47.1°F8.4°C 99% Calm Calm 1.0 mph1.6 kmh 30.03 in1016.9 mb 0.02 in0.5 mm 0.00 in0.0 mm 0.05 in1.3 mm
06:20 AM 47.3°F8.5°C 47.0°F8.3°C 99% Calm Calm 1.0 mph1.6 kmh 30.03 in1016.9 mb 0.02 in0.5 mm 0.00 in0.0 mm 0.05 in1.3 mm
06:10 AM 47.2°F8.4°C 46.9°F8.3°C 99% Calm Calm -- 30.03 in1016.9 mb 0.02 in0.5 mm 0.00 in0.0 mm 0.05 in1.3 mm
06:00 AM 47.1°F8.4°C 46.8°F8.2°C 99% Calm Calm -- 30.04 in1017.3 mb 0.03 in0.8 mm 0.00 in0.0 mm 0.05 in1.3 mm
05:50 AM 47.0°F8.3°C 46.7°F8.2°C 99% Calm Calm -- 30.03 in1016.9 mb 0.03 in0.8 mm 0.06 in1.5 mm 0.05 in1.3 mm
05:40 AM 46.9°F8.3°C 46.6°F8.1°C 99% Calm Calm -- 30.03 in1016.9 mb 0.02 in0.5 mm 0.06 in1.5 mm 0.04 in1.0 mm
05:30 AM 46.8°F8.2°C 46.5°F8.1°C 99% Calm Calm -- 30.04 in1017.3 mb 0.01 in0.3 mm 0.00 in0.0 mm 0.03 in0.8 mm
05:20 AM 46.7°F8.2°C 46.4°F8.0°C 99% Calm Calm -- 30.04 in1017.3 mb 0.01 in0.3 mm 0.00 in0.0 mm 0.03 in0.8 mm
05:10 AM 46.5°F8.1°C 46.5°F8.1°C 100% Calm Calm 1.0 mph1.6 kmh 30.04 in1017.3 mb 0.01 in0.3 mm 0.06 in1.5 mm 0.03 in0.8 mm
05:00 AM 46.4°F8.0°C 46.4°F8.0°C 100% Calm Calm -- 30.05 in1017.6 mb 0.00 in0.0 mm 0.00 in0.0 mm 0.02 in0.5 mm
04:50 AM 46.3°F7.9°C 46.0°F7.8°C 99% Calm Calm -- 30.05 in1017.6 mb 0.00 in0.0 mm 0.00 in0.0 mm 0.02 in0.5 mm
04:40 AM 46.2°F7.9°C 45.9°F7.7°C 99% Calm Calm -- 30.05 in1017.6 mb 0.00 in0.0 mm 0.00 in0.0 mm 0.02 in0.5 mm
04:30 AM 46.0°F7.8°C 45.7°F7.6°C 99% Calm Calm -- 30.05 in1017.6 mb 0.00 in0.0 mm 0.00 in0.0 mm 0.02 in0.5 mm
04:20 AM 45.9°F7.7°C 45.9°F7.7°C 100% Calm Calm -- 30.06 in1017.9 mb 0.00 in0.0 mm 0.00 in0.0 mm 0.02 in0.5 mm
04:10 AM 45.7°F7.6°C 45.7°F7.6°C 100% Calm Calm -- 30.06 in1017.9 mb 0.01 in0.3 mm 0.00 in0.0 mm 0.02 in0.5 mm
04:00 AM 45.5°F7.5°C 45.5°F7.5°C 100% Calm Calm -- 30.07 in1018.3 mb 0.01 in0.3 mm 0.00 in0.0 mm 0.02 in0.5 mm
03:50 AM 45.3°F7.4°C 45.3°F7.4°C 100% Calm Calm -- 30.07 in1018.3 mb 0.01 in0.3 mm 0.00 in0.0 mm 0.02 in0.5 mm
03:40 AM 45.1°F7.3°C 45.1°F7.3°C 100% Calm Calm -- 30.07 in1018.3 mb 0.01 in0.3 mm 0.00 in0.0 mm 0.02 in0.5 mm
03:30 AM 45.0°F7.2°C 45.0°F7.2°C 100% Calm Calm -- 30.08 in1018.6 mb 0.01 in0.3 mm 0.00 in0.0 mm 0.02 in0.5 mm
03:20 AM 44.8°F7.1°C 44.8°F7.1°C 100% 1.0 mph WSW1.6 kmh WSW 2.0 mph3.2 kmh 30.09 in1019.0 mb 0.01 in0.3 mm 0.06 in1.5 mm 0.02 in0.5 mm
03:10 AM 44.5°F6.9°C 44.5°F6.9°C 100% Calm Calm 3.0 mph4.8 kmh 30.09 in1019.0 mb 0.00 in0.0 mm 0.00 in0.0 mm 0.01 in0.3 mm
03:00 AM 44.0°F6.7°C 44.0°F6.7°C 100% Calm Calm 1.0 mph1.6 kmh 30.10 in1019.3 mb 0.01 in0.3 mm 0.00 in0.0 mm 0.01 in0.3 mm
02:50 AM 43.6°F6.4°C 43.6°F6.4°C 100% 1.0 mph WSW1.6 kmh WSW 4.0 mph6.4 kmh 30.11 in1019.6 mb 0.01 in0.3 mm 0.00 in0.0 mm 0.01 in0.3 mm
02:40 AM 43.0°F6.1°C 43.0°F6.1°C 100% Calm Calm 1.0 mph1.6 kmh 30.11 in1019.6 mb 0.01 in0.3 mm 0.00 in0.0 mm 0.01 in0.3 mm
02:30 AM 42.7°F5.9°C 42.7°F5.9°C 100% Calm Calm 1.0 mph1.6 kmh 30.11 in1019.6 mb 0.01 in0.3 mm 0.00 in0.0 mm 0.01 in0.3 mm
02:20 AM 42.2°F5.7°C 42.2°F5.7°C 100% 1.0 mph WSW1.6 kmh WSW 3.0 mph4.8 kmh 30.12 in1020.0 mb 0.01 in0.3 mm 0.00 in0.0 mm 0.01 in0.3 mm
02:10 AM 41.7°F5.4°C 41.7°F5.4°C 100% Calm Calm 1.0 mph1.6 kmh 30.12 in1020.0 mb 0.01 in0.3 mm 0.06 in1.5 mm 0.01 in0.3 mm
02:00 AM 41.3°F5.2°C 41.3°F5.2°C 100% Calm Calm -- 30.12 in1020.0 mb 0.00 in0.0 mm 0.00 in0.0 mm 0.00 in0.0 mm
01:50 AM 40.9°F4.9°C 40.1°F4.5°C 97% Calm Calm -- 30.13 in1020.3 mb 0.00 in0.0 mm 0.00 in0.0 mm 0.00 in0.0 mm
01:40 AM 40.6°F4.8°C 39.8°F4.3°C 97% Calm Calm -- 30.13 in1020.3 mb 0.00 in0.0 mm 0.00 in0.0 mm 0.00 in0.0 mm
01:30 AM 40.3°F4.6°C 39.5°F4.2°C 97% Calm Calm -- 30.14 in1020.7 mb 0.00 in0.0 mm 0.00 in0.0 mm 0.00 in0.0 mm
01:20 AM 40.0°F4.4°C 39.2°F4.0°C 97% Calm Calm 1.0 mph1.6 kmh 30.14 in1020.7 mb 0.00 in0.0 mm 0.00 in0.0 mm 0.00 in0.0 mm
01:10 AM 39.6°F4.2°C 38.8°F3.8°C 97% Calm Calm -- 30.15 in1021.0 mb 0.00 in0.0 mm 0.00 in0.0 mm 0.00 in0.0 mm
01:00 AM 39.2°F4.0°C 38.4°F3.6°C 97% Calm Calm 1.0 mph1.6 kmh 30.15 in1021.0 mb 0.00 in0.0 mm 0.00 in0.0 mm 0.00 in0.0 mm
12:50 AM 38.9°F3.8°C 38.1°F3.4°C 97% Calm Calm 1.0 mph1.6 kmh 30.15 in1021.0 mb 0.00 in0.0 mm 0.00 in0.0 mm 0.00 in0.0 mm
12:40 AM 38.3°F3.5°C 37.5°F3.1°C 97% Calm Calm -- 30.16 in1021.3 mb 0.00 in0.0 mm 0.00 in0.0 mm 0.00 in0.0 mm
12:30 AM 37.9°F3.3°C 37.1°F2.8°C 97% Calm Calm -- 30.16 in1021.3 mb 0.00 in0.0 mm 0.00 in0.0 mm 0.00 in0.0 mm
12:20 AM 37.1°F2.8°C 36.1°F2.3°C 96% Calm Calm -- 30.16 in1021.3 mb 0.00 in0.0 mm 0.00 in0.0 mm 0.00 in0.0 mm
12:10 AM 36.3°F2.4°C 35.3°F1.8°C 96% Calm Calm 1.0 mph1.6 kmh 30.17 in1021.7 mb 0.00 in0.0 mm 0.00 in0.0 mm 0.00 in0.0 mm
12:00 AM 36.1°F2.3°C 34.8°F1.6°C 95% Calm Calm -- 30.17 in1021.7 mb 0.00 in0.0 mm 0.00 in0.0 mm 0.00 in0.0 mm